![]() |
EMODnet Physics ERDDAP
Easier access to scientific data |
log in|
Brought to you by EMODnet Physics |
| Dataset Title: | NDBC - Collection of dew point temperature (DEWT) TimeSeries - IN SITU MultiPointTimeSeriesObservation
|
| Institution: | NDBC (Dataset ID: TS_DEWT_NDBC) |
| Information: | Summary
| License
| FGDC
| ISO 19115
| Metadata
| Background
| Subset
| Data Access Form
| Make a graph
|
| Name | Last modified | Size | Description | |
|---|---|---|---|---|
| Parent Directory | - | - | ||
| 41025_TS_DEWT_012004.nc | 26-Oct-2024 10:28 | 1265978 | ||
| 41025_TS_DEWT_012005.nc | 26-Oct-2024 10:28 | 1268509 | ||
| 41025_TS_DEWT_012006.nc | 26-Oct-2024 10:28 | 1265926 | ||
| 41025_TS_DEWT_012007.nc | 26-Oct-2024 10:28 | 1144210 | ||
| 41025_TS_DEWT_012008.nc | 26-Oct-2024 10:28 | 1020230 | ||
| 41025_TS_DEWT_012009.nc | 26-Oct-2024 10:28 | 5373270 | ||
| 41025_TS_DEWT_012010.nc | 26-Oct-2024 10:28 | 4550158 | ||
| 41025_TS_DEWT_012011.nc | 26-Oct-2024 10:29 | 449850 | ||
| 41025_TS_DEWT_012014.nc | 26-Oct-2024 10:29 | 450645 | ||
| 41025_TS_DEWT_012015.nc | 26-Oct-2024 10:29 | 628415 | ||
| 41025_TS_DEWT_012016.nc | 26-Oct-2024 10:29 | 626922 | ||
| 41025_TS_DEWT_012017.nc | 26-Oct-2024 10:29 | 626715 | ||
| 41025_TS_DEWT_012018.nc | 26-Oct-2024 10:29 | 628340 | ||
| 41025_TS_DEWT_012020.nc | 26-Oct-2024 10:29 | 628770 | ||
| 41025_TS_DEWT_012021.nc | 26-Oct-2024 10:29 | 629774 | ||
| 41025_TS_DEWT_012022.nc | 26-Oct-2024 10:29 | 627872 | ||
| 41025_TS_DEWT_012023.nc | 26-Oct-2024 10:29 | 627405 | ||
| 41025_TS_DEWT_012024.nc | 26-Oct-2024 10:29 | 628471 | ||
| 41025_TS_DEWT_012026.nc | 02-Feb-2026 20:27 | 1263221 | ||
| 41025_TS_DEWT_022004.nc | 26-Oct-2024 10:29 | 1264414 | ||
| 41025_TS_DEWT_022006.nc | 26-Oct-2024 10:29 | 1257422 | ||
| 41025_TS_DEWT_022007.nc | 26-Oct-2024 10:29 | 1269305 | ||
| 41025_TS_DEWT_022008.nc | 26-Oct-2024 10:30 | 1109882 | ||
| 41025_TS_DEWT_022009.nc | 26-Oct-2024 10:30 | 4455317 | ||
| 41025_TS_DEWT_022010.nc | 26-Oct-2024 10:30 | 448005 | ||
| 41025_TS_DEWT_022011.nc | 26-Oct-2024 10:30 | 448704 | ||
| 41025_TS_DEWT_022014.nc | 26-Oct-2024 10:30 | 474210 | ||
| 41025_TS_DEWT_022015.nc | 26-Oct-2024 10:30 | 476446 | ||
| 41025_TS_DEWT_022016.nc | 26-Oct-2024 10:30 | 475439 | ||
| 41025_TS_DEWT_022017.nc | 26-Oct-2024 10:30 | 477339 | ||
| 41025_TS_DEWT_022018.nc | 26-Oct-2024 10:30 | 477581 | ||
| 41025_TS_DEWT_022020.nc | 26-Oct-2024 10:30 | 475902 | ||
| 41025_TS_DEWT_022021.nc | 26-Oct-2024 10:30 | 439409 | ||
| 41025_TS_DEWT_022022.nc | 26-Oct-2024 10:30 | 474512 | ||
| 41025_TS_DEWT_022023.nc | 26-Oct-2024 10:31 | 478744 | ||
| 41025_TS_DEWT_022024.nc | 16-Sep-2024 16:51 | 423823 | ||
| 41025_TS_DEWT_022026.nc | 01-Mar-2026 12:22 | 1024341 | ||
| 41025_TS_DEWT_032003.nc | 26-Oct-2024 10:31 | 1108324 | ||
| 41025_TS_DEWT_032004.nc | 26-Oct-2024 10:31 | 1027433 | ||
| 41025_TS_DEWT_032005.nc | 26-Oct-2024 10:31 | 1027632 | ||
| 41025_TS_DEWT_032006.nc | 26-Oct-2024 10:31 | 1030973 | ||
| 41025_TS_DEWT_032007.nc | 26-Oct-2024 10:31 | 3524214 | ||
| 41025_TS_DEWT_032008.nc | 26-Oct-2024 10:31 | 450795 | ||
| 41025_TS_DEWT_032009.nc | 26-Oct-2024 10:31 | 448896 | ||
| 41025_TS_DEWT_032010.nc | 26-Oct-2024 10:31 | 630434 | ||
| 41025_TS_DEWT_032011.nc | 26-Oct-2024 10:31 | 628313 | ||
| 41025_TS_DEWT_032014.nc | 26-Oct-2024 10:31 | 626534 | ||
| 41025_TS_DEWT_032016.nc | 26-Oct-2024 10:31 | 476710 | ||
| 41025_TS_DEWT_032017.nc | 26-Oct-2024 10:31 | 628624 | ||
| 41025_TS_DEWT_032018.nc | 26-Oct-2024 10:31 | 629174 | ||
| 41025_TS_DEWT_032020.nc | 26-Oct-2024 10:31 | 597582 | ||
| 41025_TS_DEWT_032021.nc | 26-Oct-2024 10:32 | 627957 | ||
| 41025_TS_DEWT_032022.nc | 26-Oct-2024 10:32 | 626535 | ||
| 41025_TS_DEWT_032023.nc | 26-Oct-2024 10:32 | 1264718 | ||
| 41025_TS_DEWT_032026.nc | 23-Mar-2026 13:14 | 1264493 | ||
| 41025_TS_DEWT_042003.nc | 26-Oct-2024 10:32 | 1261319 | ||
| 41025_TS_DEWT_042004.nc | 26-Oct-2024 10:32 | 1007511 | ||
| 41025_TS_DEWT_042005.nc | 26-Oct-2024 10:32 | 1263889 | ||
| 41025_TS_DEWT_042006.nc | 26-Oct-2024 10:32 | 1266926 | ||
| 41025_TS_DEWT_042007.nc | 26-Oct-2024 10:32 | 4141606 | ||
| 41025_TS_DEWT_042008.nc | 26-Oct-2024 10:32 | 449043 | ||
| 41025_TS_DEWT_042009.nc | 26-Oct-2024 10:32 | 448986 | ||
| 41025_TS_DEWT_042010.nc | 26-Oct-2024 10:32 | 478150 | ||
| 41025_TS_DEWT_042011.nc | 26-Oct-2024 10:32 | 481150 | ||
| 41025_TS_DEWT_042014.nc | 26-Oct-2024 10:32 | 479040 | ||
| 41025_TS_DEWT_042015.nc | 26-Oct-2024 10:33 | 429128 | ||
| 41025_TS_DEWT_042016.nc | 26-Oct-2024 10:33 | 479490 | ||
| 41025_TS_DEWT_042017.nc | 26-Oct-2024 10:33 | 441679 | ||
| 41025_TS_DEWT_042018.nc | 26-Oct-2024 10:33 | 444600 | ||
| 41025_TS_DEWT_042020.nc | 26-Oct-2024 10:33 | 445655 | ||
| 41025_TS_DEWT_042022.nc | 26-Oct-2024 10:33 | 480903 | ||
| 41025_TS_DEWT_042023.nc | 26-Oct-2024 10:33 | 478901 | ||
| 41025_TS_DEWT_052003.nc | 26-Oct-2024 10:33 | 473582 | ||
| 41025_TS_DEWT_052004.nc | 26-Oct-2024 10:33 | 1109975 | ||
| 41025_TS_DEWT_052005.nc | 26-Oct-2024 10:33 | 1114790 | ||
| 41025_TS_DEWT_052006.nc | 26-Oct-2024 10:33 | 1111262 | ||
| 41025_TS_DEWT_052007.nc | 26-Oct-2024 10:33 | 1113698 | ||
| 41025_TS_DEWT_052008.nc | 26-Oct-2024 10:33 | 1112316 | ||
| 41025_TS_DEWT_052009.nc | 26-Oct-2024 10:33 | 992358 | ||
| 41025_TS_DEWT_052010.nc | 26-Oct-2024 10:33 | 4850949 | ||
| 41025_TS_DEWT_052011.nc | 26-Oct-2024 10:33 | 450970 | ||
| 41025_TS_DEWT_052014.nc | 26-Oct-2024 10:34 | 449794 | ||
| 41025_TS_DEWT_052015.nc | 26-Oct-2024 10:34 | 435609 | ||
| 41025_TS_DEWT_052016.nc | 26-Oct-2024 10:34 | 627949 | ||
| 41025_TS_DEWT_052017.nc | 26-Oct-2024 10:34 | 628241 | ||
| 41025_TS_DEWT_052018.nc | 26-Oct-2024 10:34 | 471619 | ||
| 41025_TS_DEWT_052020.nc | 26-Oct-2024 10:34 | 628195 | ||
| 41025_TS_DEWT_052022.nc | 26-Oct-2024 10:34 | 613317 | ||
| 41025_TS_DEWT_052023.nc | 26-Oct-2024 10:34 | 630314 | ||
| 41025_TS_DEWT_052025.nc | 01-Jun-2025 04:57 | 626618 | ||
| 41025_TS_DEWT_062003.nc | 26-Oct-2024 10:34 | 627666 | ||
| 41025_TS_DEWT_062004.nc | 26-Oct-2024 10:34 | 628085 | ||
| 41025_TS_DEWT_062005.nc | 26-Oct-2024 10:34 | 1110218 | ||
| 41025_TS_DEWT_062006.nc | 26-Oct-2024 10:35 | 1263586 | ||
| 41025_TS_DEWT_062007.nc | 26-Oct-2024 10:35 | 1265166 | ||
| 41025_TS_DEWT_062008.nc | 26-Oct-2024 10:35 | 1264758 | ||
| 41025_TS_DEWT_062009.nc | 26-Oct-2024 10:35 | 1266276 | ||
| 41025_TS_DEWT_062010.nc | 26-Oct-2024 10:35 | 1262758 | ||
| 41025_TS_DEWT_062011.nc | 26-Oct-2024 10:35 | 1256868 | ||
| 41025_TS_DEWT_062014.nc | 26-Oct-2024 10:35 | 5582167 | ||
| 41025_TS_DEWT_062015.nc | 26-Oct-2024 10:35 | 450285 | ||
| 41025_TS_DEWT_062016.nc | 26-Oct-2024 10:35 | 448940 | ||
| 41025_TS_DEWT_062017.nc | 26-Oct-2024 10:35 | 478898 | ||
| 41025_TS_DEWT_062018.nc | 26-Oct-2024 10:35 | 479591 | ||
| 41025_TS_DEWT_062019.nc | 26-Oct-2024 10:35 | 478525 | ||
| 41025_TS_DEWT_062020.nc | 26-Oct-2024 10:36 | 480724 | ||
| 41025_TS_DEWT_062022.nc | 26-Oct-2024 10:36 | 479632 | ||
| 41025_TS_DEWT_062023.nc | 26-Oct-2024 10:36 | 479924 | ||
| 41025_TS_DEWT_062025.nc | 01-Jul-2025 05:04 | 478803 | ||
| 41025_TS_DEWT_072003.nc | 26-Oct-2024 10:36 | 478804 | ||
| 41025_TS_DEWT_072004.nc | 26-Oct-2024 10:36 | 479506 | ||
| 41025_TS_DEWT_072005.nc | 26-Oct-2024 10:36 | 478355 | ||
| 41025_TS_DEWT_072006.nc | 26-Oct-2024 10:36 | 1112325 | ||
| 41025_TS_DEWT_072007.nc | 26-Oct-2024 10:36 | 1112235 | ||
| 41025_TS_DEWT_072008.nc | 26-Oct-2024 10:36 | 1028458 | ||
| 41025_TS_DEWT_072009.nc | 26-Oct-2024 10:36 | 1112648 | ||
| 41025_TS_DEWT_072010.nc | 26-Oct-2024 10:36 | 1112547 | ||
| 41025_TS_DEWT_072011.nc | 26-Oct-2024 10:36 | 1113722 | ||
| 41025_TS_DEWT_072012.nc | 26-Oct-2024 10:36 | 1110612 | ||
| 41025_TS_DEWT_072014.nc | 26-Oct-2024 10:36 | 5185465 | ||
| 41025_TS_DEWT_072015.nc | 26-Oct-2024 10:37 | 451018 | ||
| 41025_TS_DEWT_072016.nc | 26-Oct-2024 10:37 | 450354 | ||
| 41025_TS_DEWT_072017.nc | 26-Oct-2024 10:37 | 627621 | ||
| 41025_TS_DEWT_072018.nc | 26-Oct-2024 10:37 | 627331 | ||
| 41025_TS_DEWT_072019.nc | 26-Oct-2024 10:37 | 627345 | ||
| 41025_TS_DEWT_072020.nc | 26-Oct-2024 10:37 | 627288 | ||
| 41025_TS_DEWT_072021.nc | 26-Oct-2024 10:37 | 630053 | ||
| 41025_TS_DEWT_072022.nc | 26-Oct-2024 10:37 | 627963 | ||
| 41025_TS_DEWT_072023.nc | 26-Oct-2024 10:37 | 606406 | ||
| 41025_TS_DEWT_072025.nc | 01-Aug-2025 05:13 | 627590 | ||
| 41025_TS_DEWT_082003.nc | 26-Oct-2024 10:37 | 627069 | ||
| 41025_TS_DEWT_082004.nc | 26-Oct-2024 10:37 | 628088 | ||
| 41025_TS_DEWT_082005.nc | 26-Oct-2024 10:37 | 1264350 | ||
| 41025_TS_DEWT_082006.nc | 26-Oct-2024 10:37 | 1265048 | ||
| 41025_TS_DEWT_082007.nc | 26-Oct-2024 10:37 | 1265684 | ||
| 41025_TS_DEWT_082008.nc | 26-Oct-2024 10:37 | 1107897 | ||
| 41025_TS_DEWT_082009.nc | 26-Oct-2024 10:37 | 1265678 | ||
| 41025_TS_DEWT_082010.nc | 26-Oct-2024 10:38 | 1266744 | ||
| 41025_TS_DEWT_082011.nc | 26-Oct-2024 10:38 | 1265820 | ||
| 41025_TS_DEWT_082012.nc | 26-Oct-2024 10:38 | 1927565 | ||
| 41025_TS_DEWT_082014.nc | 26-Oct-2024 10:38 | 450066 | ||
| 41025_TS_DEWT_082015.nc | 26-Oct-2024 10:38 | 451540 | ||
| 41025_TS_DEWT_082016.nc | 26-Oct-2024 10:38 | 627391 | ||
| 41025_TS_DEWT_082017.nc | 26-Oct-2024 10:38 | 627841 | ||
| 41025_TS_DEWT_082018.nc | 26-Oct-2024 10:38 | 626916 | ||
| 41025_TS_DEWT_082019.nc | 26-Oct-2024 10:38 | 630977 | ||
| 41025_TS_DEWT_082020.nc | 26-Oct-2024 10:38 | 627341 | ||
| 41025_TS_DEWT_082021.nc | 26-Oct-2024 10:38 | 630069 | ||
| 41025_TS_DEWT_082022.nc | 26-Oct-2024 10:39 | 627350 | ||
| 41025_TS_DEWT_082023.nc | 26-Oct-2024 10:39 | 628194 | ||
| 41025_TS_DEWT_082025.nc | 01-Sep-2025 05:02 | 470349 | ||
| 41025_TS_DEWT_092003.nc | 26-Oct-2024 10:39 | 1264510 | ||
| 41025_TS_DEWT_092005.nc | 26-Oct-2024 10:39 | 1269287 | ||
| 41025_TS_DEWT_092006.nc | 26-Oct-2024 10:39 | 1266200 | ||
| 41025_TS_DEWT_092007.nc | 26-Oct-2024 10:39 | 1265597 | ||
| 41025_TS_DEWT_092008.nc | 26-Oct-2024 10:39 | 1263394 | ||
| 41025_TS_DEWT_092009.nc | 26-Oct-2024 10:39 | 1266861 | ||
| 41025_TS_DEWT_092010.nc | 26-Oct-2024 10:39 | 1266804 | ||
| 41025_TS_DEWT_092012.nc | 26-Oct-2024 10:39 | 437381 | ||
| 41025_TS_DEWT_092013.nc | 26-Oct-2024 10:39 | 449931 | ||
| 41025_TS_DEWT_092014.nc | 26-Oct-2024 10:39 | 449359 | ||
| 41025_TS_DEWT_092015.nc | 26-Oct-2024 10:39 | 480993 | ||
| 41025_TS_DEWT_092016.nc | 26-Oct-2024 10:39 | 479631 | ||
| 41025_TS_DEWT_092017.nc | 26-Oct-2024 10:40 | 478395 | ||
| 41025_TS_DEWT_092018.nc | 26-Oct-2024 10:40 | 480462 | ||
| 41025_TS_DEWT_092019.nc | 26-Oct-2024 10:40 | 481742 | ||
| 41025_TS_DEWT_092020.nc | 26-Oct-2024 10:40 | 479715 | ||
| 41025_TS_DEWT_092021.nc | 26-Oct-2024 10:40 | 479640 | ||
| 41025_TS_DEWT_092022.nc | 26-Oct-2024 10:40 | 481503 | ||
| 41025_TS_DEWT_092023.nc | 26-Oct-2024 10:40 | 1034918 | ||
| 41025_TS_DEWT_092025.nc | 01-Oct-2025 04:48 | 1113858 | ||
| 41025_TS_DEWT_102003.nc | 26-Oct-2024 10:40 | 1113326 | ||
| 41025_TS_DEWT_102004.nc | 26-Oct-2024 10:40 | 1114499 | ||
| 41025_TS_DEWT_102005.nc | 26-Oct-2024 10:40 | 1112579 | ||
| 41025_TS_DEWT_102006.nc | 26-Oct-2024 10:40 | 1115692 | ||
| 41025_TS_DEWT_102007.nc | 26-Oct-2024 10:40 | 1114708 | ||
| 41025_TS_DEWT_102008.nc | 26-Oct-2024 10:40 | 450776 | ||
| 41025_TS_DEWT_102009.nc | 26-Oct-2024 10:40 | 450221 | ||
| 41025_TS_DEWT_102010.nc | 26-Oct-2024 10:40 | 446229 | ||
| 41025_TS_DEWT_102013.nc | 26-Oct-2024 10:41 | 628023 | ||
| 41025_TS_DEWT_102014.nc | 26-Oct-2024 10:41 | 627982 | ||
| 41025_TS_DEWT_102015.nc | 26-Oct-2024 10:41 | 627818 | ||
| 41025_TS_DEWT_102016.nc | 26-Oct-2024 10:41 | 629775 | ||
| 41025_TS_DEWT_102017.nc | 26-Oct-2024 10:41 | 630648 | ||
| 41025_TS_DEWT_102018.nc | 26-Oct-2024 10:41 | 627487 | ||
| 41025_TS_DEWT_102019.nc | 26-Oct-2024 10:41 | 630115 | ||
| 41025_TS_DEWT_102020.nc | 26-Oct-2024 10:41 | 627182 | ||
| 41025_TS_DEWT_102021.nc | 26-Oct-2024 10:41 | 1263487 | ||
| 41025_TS_DEWT_102022.nc | 26-Oct-2024 10:41 | 1264206 | ||
| 41025_TS_DEWT_102023.nc | 26-Oct-2024 10:41 | 1264090 | ||
| 41025_TS_DEWT_102025.nc | 01-Nov-2025 07:51 | 1265002 | ||
| 41025_TS_DEWT_112003.nc | 26-Oct-2024 10:41 | 1269571 | ||
| 41025_TS_DEWT_112004.nc | 26-Oct-2024 10:41 | 1287306 | ||
| 41025_TS_DEWT_112005.nc | 26-Oct-2024 10:42 | 449970 | ||
| 41025_TS_DEWT_112006.nc | 26-Oct-2024 10:42 | 449008 | ||
| 41025_TS_DEWT_112007.nc | 26-Oct-2024 10:42 | 482175 | ||
| 41025_TS_DEWT_112008.nc | 26-Oct-2024 10:42 | 478505 | ||
| 41025_TS_DEWT_112009.nc | 26-Oct-2024 10:42 | 479438 | ||
| 41025_TS_DEWT_112010.nc | 26-Oct-2024 10:42 | 479542 | ||
| 41025_TS_DEWT_112013.nc | 26-Oct-2024 10:42 | 480485 | ||
| 41025_TS_DEWT_112014.nc | 26-Oct-2024 10:42 | 478368 | ||
| 41025_TS_DEWT_112015.nc | 26-Oct-2024 10:42 | 478416 | ||
| 41025_TS_DEWT_112016.nc | 26-Oct-2024 10:42 | 479079 | ||
| 41025_TS_DEWT_112017.nc | 26-Oct-2024 10:42 | 1113813 | ||
| 41025_TS_DEWT_112018.nc | 26-Oct-2024 10:42 | 1112269 | ||
| 41025_TS_DEWT_112019.nc | 26-Oct-2024 10:42 | 1106744 | ||
| 41025_TS_DEWT_112020.nc | 26-Oct-2024 10:42 | 1113887 | ||
| 41025_TS_DEWT_112021.nc | 26-Oct-2024 10:43 | 1062622 | ||
| 41025_TS_DEWT_112022.nc | 26-Oct-2024 10:43 | 1188581 | ||
| 41025_TS_DEWT_112023.nc | 26-Oct-2024 10:43 | 450449 | ||
| 41025_TS_DEWT_112025.nc | 01-Dec-2025 09:51 | 451282 | ||
| 41025_TS_DEWT_122003.nc | 26-Oct-2024 10:43 | 448745 | ||
| 41025_TS_DEWT_122004.nc | 26-Oct-2024 10:43 | 628062 | ||
| 41025_TS_DEWT_122005.nc | 26-Oct-2024 10:43 | 629464 | ||
| 41025_TS_DEWT_122006.nc | 26-Oct-2024 10:43 | 629053 | ||
| 41025_TS_DEWT_122007.nc | 26-Oct-2024 10:43 | 482439 | ||
| 41025_TS_DEWT_122008.nc | 26-Oct-2024 10:43 | 625990 | ||
| 41025_TS_DEWT_122009.nc | 26-Oct-2024 10:43 | 628224 | ||
| 41025_TS_DEWT_122010.nc | 26-Oct-2024 10:43 | 627231 | ||
| 41025_TS_DEWT_122013.nc | 26-Oct-2024 10:43 | 627493 | ||
| 41025_TS_DEWT_122014.nc | 26-Oct-2024 10:44 | 1263032 | ||
| 41025_TS_DEWT_122015.nc | 26-Oct-2024 10:44 | 1265763 | ||
| 41025_TS_DEWT_122016.nc | 26-Oct-2024 10:44 | 1265341 | ||
| 41025_TS_DEWT_122017.nc | 26-Oct-2024 10:44 | 1268542 | ||
| 41025_TS_DEWT_122018.nc | 26-Oct-2024 10:44 | 1261082 | ||
| 41025_TS_DEWT_122019.nc | 26-Oct-2024 10:44 | 5192474 | ||
| 41025_TS_DEWT_122020.nc | 26-Oct-2024 10:44 | 451578 | ||
| 41025_TS_DEWT_122021.nc | 26-Oct-2024 10:44 | 450590 | ||
| 41025_TS_DEWT_122022.nc | 26-Oct-2024 10:44 | 451218 | ||
| 41025_TS_DEWT_122023.nc | 26-Oct-2024 10:44 | 450430 | ||
| 41025_TS_DEWT_122025.nc | 01-Jan-2026 09:27 | 438414 | ||